Terminal Aerodrome Forecast
Issued by NWS Charleston, WV

Current Version | Previous Version | Graphics & Text | Print | Product List | Glossary On
Versions: 1 2 3 4 5 6 7 8 9 10 11 12 13 14 15 16 17 18 19 20 21 22 23
000
FTUS41 KRLX 031700 RRA
TAFHTS
TAF
KHTS 031753Z 0318/0418 16008KT P6SM -RA OVC018
     FM032100 18012KT 5SM -RA BR OVC012
     FM040100 21009KT 4SM -RA BR OVC008
     FM040700 29007KT 3SM +RA BR OVC006
     FM041100 31004KT 2SM +RA BR OVC004=

USA.gov is the U.S. government's official web portal to all federal, state and local government web resources and services.